Streator East, Illinois
Current Conditions -  °F | °C
As of 12:15 PM on Thursday 29 Jan 2015 (Local Time) from KPNT Reporting Station
Overcast Overcast  
Wind Chill: 25°   Ceiling: 2100
Heat Index: 36°   Visibility: 7mi
Dew Point: 30°   Wind: 18mph
Humidity: 81%   Direction: 320°NW
Pressure: 30"   Gusts: 26mph
Location:  41.1182°N, 88.8294°W
Report Text: KPNT 291815Z AUTO 32016G23KT 7SM OVC021 02/M01 A3000 RMK AO2 T00201010
Loading
Personal Weather Stations






























Interactive Weather Map New forecast layout! Learn more

10-Day Weather Forecast

Advertisements
Track Severe Weather on mobile